Time;durP1;ratioP1;P1;durP2;ratioP2;P2;SDS_P1;SDS_P2;PMS_P1;PMS_P2;Temp;Humidity;BMP_temperature;BMP_pressure;BME280_temperature;BME280_humidity;BME280_pressure;Samples;Min_cycle;Max_cycle;Signal;HPM_P1;HPM_P2
2021/12/06 00:00:24;;;;;;;4.25;1.88;;;4.30;84.90;;;;;;5096207;28;20112;-68
2021/12/06 00:02:53;;;;;;;6.97;2.08;;;4.30;84.80;;;;;;5098632;28;20079;-65
2021/12/06 00:05:28;;;;;;;5.85;2.03;;;4.30;84.80;;;;;;5097752;28;20040;-67
2021/12/06 00:07:56;;;;;;;7.20;2.35;;;4.30;84.80;;;;;;5098433;28;20044;-66
2021/12/06 00:10:30;;;;;;;5.25;2.13;;;4.30;84.90;;;;;;5051340;28;20469;-69
2021/12/06 00:13:04;;;;;;;3.35;2.00;;;4.30;84.90;;;;;;1342376;28;10024286;-65
2021/12/06 00:15:33;;;;;;;4.13;2.30;;;4.30;84.90;;;;;;4702226;28;10001353;-66
2021/12/06 00:18:07;;;;;;;6.93;2.83;;;4.30;84.80;;;;;;5057422;28;20053;-65
2021/12/06 00:20:41;;;;;;;3.92;2.35;;;4.30;84.80;;;;;;5054024;28;20402;-66
2021/12/06 00:23:08;;;;;;;3.88;1.88;;;4.30;84.70;;;;;;5058397;28;20067;-64
2021/12/06 00:25:35;;;;;;;3.20;1.83;;;4.30;84.70;;;;;;5058844;28;20040;-65
2021/12/06 00:28:02;;;;;;;4.20;1.90;;;4.30;84.60;;;;;;5059554;28;20592;-66
2021/12/06 00:30:29;;;;;;;3.78;2.00;;;4.30;84.60;;;;;;5059193;28;20045;-66
2021/12/06 00:32:57;;;;;;;8.23;2.72;;;4.30;84.60;;;;;;5059141;28;20072;-66
2021/12/06 00:35:24;;;;;;;6.88;2.40;;;4.30;84.60;;;;;;5072207;28;20100;-67
2021/12/06 00:37:57;;;;;;;6.45;2.35;;;4.20;84.60;;;;;;5054787;28;20052;-65
2021/12/06 00:40:27;;;;;;;4.38;2.22;;;4.20;84.60;;;;;;5057460;28;20049;-66
2021/12/06 00:42:55;;;;;;;4.75;2.22;;;4.20;84.70;;;;;;5056839;28;20048;-66
2021/12/06 00:45:24;;;;;;;4.20;1.83;;;4.20;84.80;;;;;;5058086;28;20055;-66
2021/12/06 00:47:51;;;;;;;6.28;2.47;;;4.20;84.80;;;;;;5059826;28;20072;-66
2021/12/06 00:50:20;;;;;;;3.08;2.08;;;4.30;84.70;;;;;;5056575;28;20057;-67
2021/12/06 00:52:48;;;;;;;6.18;2.08;;;4.30;84.60;;;;;;5063520;28;20085;-68
2021/12/06 00:55:19;;;;;;;4.03;2.13;;;4.20;84.50;;;;;;5059731;28;20048;-65
2021/12/06 00:57:46;;;;;;;7.78;3.55;;;4.20;84.60;;;;;;5056065;28;20080;-65
2021/12/06 01:00:17;;;;;;;7.15;3.05;;;4.20;84.70;;;;;;5057668;28;20055;-67
2021/12/06 01:02:45;;;;;;;7.63;2.63;;;4.20;84.70;;;;;;5056037;28;20059;-66
2021/12/06 01:05:12;;;;;;;8.32;4.15;;;4.20;84.70;;;;;;5058887;28;20090;-64
2021/12/06 01:07:39;;;;;;;5.93;2.88;;;4.20;84.70;;;;;;5059175;28;20049;-67
2021/12/06 01:10:08;;;;;;;4.38;2.55;;;4.20;84.70;;;;;;5054814;28;20426;-66
2021/12/06 01:12:37;;;;;;;5.95;2.72;;;4.20;84.50;;;;;;5056048;28;20567;-66
2021/12/06 01:15:05;;;;;;;5.07;2.50;;;4.20;84.50;;;;;;5049803;28;20053;-69
2021/12/06 01:17:33;;;;;;;5.18;2.60;;;4.20;84.50;;;;;;5067966;28;20135;-68
2021/12/06 01:20:00;;;;;;;6.70;2.92;;;4.20;84.70;;;;;;5055331;28;20086;-66
2021/12/06 01:22:41;;;;;;;6.90;2.95;;;4.10;84.70;;;;;;5055646;28;21117;-67
2021/12/06 01:25:23;;;;;;;6.95;2.72;;;4.10;84.70;;;;;;5080819;28;20057;-66
2021/12/06 01:28:19;;;;;;;5.22;2.35;;;4.10;84.90;;;;;;5058771;28;20040;-67
2021/12/06 01:31:00;;;;;;;4.60;2.20;;;4.20;84.90;;;;;;5064011;28;20462;-65
2021/12/06 01:34:03;;;;;;;4.93;2.67;;;4.20;84.80;;;;;;5073233;28;20054;-65
2021/12/06 01:39:18;;;;;;;5.75;2.72;;;4.10;85.00;;;;;;5074037;28;20093;-66
2021/12/06 01:41:50;;;;;;;4.07;2.20;;;4.10;85.00;;;;;;5057540;28;20036;-66
2021/12/06 01:44:22;;;;;;;3.00;1.55;;;4.10;84.90;;;;;;5055182;28;20044;-64
2021/12/06 01:47:08;;;;;;;4.75;2.10;;;4.10;84.90;;;;;;5041179;28;20127;-69
2021/12/06 01:49:39;;;;;;;5.10;2.38;;;4.10;85.00;;;;;;5059747;28;20128;-66
2021/12/06 01:52:10;;;;;;;4.68;2.25;;;4.10;85.00;;;;;;5042835;28;20048;-66
2021/12/06 01:54:37;;;;;;;5.93;2.47;;;4.00;85.00;;;;;;5061889;28;20040;-66
2021/12/06 01:57:04;;;;;;;6.80;3.00;;;4.00;85.10;;;;;;5051109;28;20121;-66
2021/12/06 01:59:33;;;;;;;5.22;2.30;;;4.00;85.10;;;;;;5037300;28;20149;-66
2021/12/06 02:02:01;;;;;;;4.03;2.15;;;4.10;85.00;;;;;;5040564;28;20056;-64
2021/12/06 02:04:32;;;;;;;5.67;3.07;;;4.00;85.00;;;;;;5064565;28;20074;-66
2021/12/06 02:07:00;;;;;;;7.65;3.22;;;4.00;85.00;;;;;;5068484;28;20466;-66
2021/12/06 02:09:31;;;;;;;4.97;2.47;;;4.00;84.80;;;;;;5060520;28;20040;-67
2021/12/06 02:12:05;;;;;;;5.50;2.55;;;4.00;84.80;;;;;;5045731;28;20072;-67
2021/12/06 02:14:43;;;;;;;5.35;2.70;;;4.00;84.80;;;;;;5063619;28;20062;-65
2021/12/06 02:17:17;;;;;;;5.82;2.72;;;4.00;84.70;;;;;;5045753;28;20048;-65
2021/12/06 02:19:48;;;;;;;5.97;2.42;;;4.00;84.70;;;;;;5040349;28;20063;-64
2021/12/06 02:22:19;;;;;;;6.18;2.53;;;4.00;84.90;;;;;;5043404;28;20052;-66
2021/12/06 02:24:46;;;;;;;5.55;2.65;;;4.00;84.80;;;;;;5062050;28;20051;-66
2021/12/06 02:27:15;;;;;;;4.80;2.35;;;4.00;84.70;;;;;;5046052;28;20051;-66
2021/12/06 02:29:45;;;;;;;5.13;2.40;;;4.00;84.60;;;;;;5058155;28;20052;-66
2021/12/06 02:32:14;;;;;;;5.43;2.35;;;4.00;84.70;;;;;;5059500;28;21574;-65
2021/12/06 02:34:52;;;;;;;5.15;2.35;;;4.00;84.80;;;;;;5050213;28;20082;-66
2021/12/06 02:37:24;;;;;;;4.55;1.88;;;4.00;84.70;;;;;;5042800;28;20622;-64
2021/12/06 02:39:52;;;;;;;4.80;1.92;;;4.00;84.60;;;;;;5061091;28;20127;-64
2021/12/06 02:42:21;;;;;;;3.63;1.70;;;4.00;84.60;;;;;;5039321;28;20049;-64
2021/12/06 02:44:49;;;;;;;5.45;2.10;;;4.00;84.60;;;;;;5044928;28;20125;-67
2021/12/06 02:47:19;;;;;;;4.03;1.70;;;3.90;84.60;;;;;;5059415;28;20059;-66
2021/12/06 02:49:48;;;;;;;4.30;1.90;;;4.00;84.50;;;;;;5059213;28;20045;-64
2021/12/06 02:52:15;;;;;;;3.17;1.55;;;3.90;84.50;;;;;;5067538;28;20041;-66
2021/12/06 02:54:43;;;;;;;3.10;1.40;;;3.90;84.40;;;;;;5058074;28;20130;-66
2021/12/06 02:57:21;;;;;;;3.28;1.58;;;3.90;84.40;;;;;;5074815;28;20551;-67
2021/12/06 02:59:49;;;;;;;3.75;2.05;;;3.90;84.30;;;;;;5058609;28;20079;-67
2021/12/06 03:02:19;;;;;;;3.47;1.65;;;3.90;84.20;;;;;;5055961;28;20490;-66
2021/12/06 03:04:48;;;;;;;3.90;1.85;;;3.90;84.10;;;;;;5055864;28;20067;-66
2021/12/06 03:07:20;;;;;;;2.97;1.60;;;3.90;84.00;;;;;;5054696;28;20056;-64
2021/12/06 03:09:51;;;;;;;5.28;2.03;;;3.80;83.90;;;;;;5061285;28;20053;-66
2021/12/06 03:12:22;;;;;;;5.10;2.10;;;3.80;83.80;;;;;;5059099;28;20067;-64
2021/12/06 03:14:51;;;;;;;3.10;1.98;;;3.80;83.80;;;;;;5057315;28;20402;-65
2021/12/06 03:17:23;;;;;;;3.13;1.42;;;3.80;83.90;;;;;;5056957;28;20048;-65
2021/12/06 03:19:51;;;;;;;5.13;2.22;;;3.80;83.80;;;;;;5059725;28;20068;-67
2021/12/06 03:22:18;;;;;;;3.42;2.08;;;3.70;83.70;;;;;;5054396;28;20071;-66
2021/12/06 03:24:51;;;;;;;4.22;2.28;;;3.70;83.80;;;;;;5062144;28;20045;-67
2021/12/06 03:27:19;;;;;;;4.60;2.30;;;3.70;83.90;;;;;;5066674;28;20060;-67
2021/12/06 03:29:47;;;;;;;5.50;2.78;;;3.70;84.00;;;;;;5061359;28;20047;-65
2021/12/06 03:32:14;;;;;;;5.00;2.72;;;3.70;83.90;;;;;;5063594;28;20410;-68
2021/12/06 03:34:42;;;;;;;4.78;2.15;;;3.70;84.00;;;;;;5066365;28;20617;-66
2021/12/06 03:37:10;;;;;;;6.00;2.90;;;3.70;84.10;;;;;;5073975;28;20040;-66
2021/12/06 03:39:42;;;;;;;6.07;2.47;;;3.70;84.20;;;;;;5060332;28;20439;-65
2021/12/06 03:42:14;;;;;;;6.25;3.05;;;3.70;84.30;;;;;;5049821;28;20502;-65
2021/12/06 03:44:42;;;;;;;4.75;2.20;;;3.70;84.10;;;;;;5058609;28;20098;-65
2021/12/06 03:47:12;;;;;;;5.78;2.97;;;3.70;84.00;;;;;;5058415;28;20053;-65
2021/12/06 03:49:43;;;;;;;7.22;2.88;;;3.70;83.90;;;;;;5055327;28;20571;-65
2021/12/06 03:52:13;;;;;;;4.93;2.28;;;3.70;83.90;;;;;;5059954;28;20132;-65
2021/12/06 03:54:43;;;;;;;5.20;2.60;;;3.60;84.00;;;;;;5060197;28;20052;-65
2021/12/06 03:57:12;;;;;;;5.53;2.63;;;3.60;83.90;;;;;;5058710;28;20493;-66
2021/12/06 03:59:40;;;;;;;8.35;3.30;;;3.60;83.80;;;;;;5056859;28;20075;-64
2021/12/06 04:02:08;;;;;;;5.80;3.03;;;3.60;83.90;;;;;;5056342;28;20044;-66
2021/12/06 04:04:36;;;;;;;7.03;2.90;;;3.60;83.90;;;;;;5057166;28;20040;-66
2021/12/06 04:07:03;;;;;;;7.40;2.95;;;3.60;83.80;;;;;;5059843;28;20188;-65
2021/12/06 04:09:32;;;;;;;7.88;2.53;;;3.60;83.90;;;;;;5058904;28;20079;-67
2021/12/06 04:12:00;;;;;;;7.32;2.38;;;3.60;84.00;;;;;;5073772;28;20049;-66
2021/12/06 04:14:32;;;;;;;7.25;2.20;;;3.60;83.90;;;;;;5055919;28;20056;-66
2021/12/06 04:16:59;;;;;;;5.40;3.13;;;3.60;83.90;;;;;;5058856;28;20555;-65
2021/12/06 04:19:27;;;;;;;7.00;2.80;;;3.60;84.00;;;;;;5071673;28;20149;-66
2021/12/06 04:21:55;;;;;;;5.40;2.67;;;3.60;84.00;;;;;;5055393;28;20047;-64
2021/12/06 04:24:23;;;;;;;6.72;3.05;;;3.60;84.00;;;;;;5055174;28;20072;-64
2021/12/06 04:26:51;;;;;;;6.93;3.25;;;3.60;84.00;;;;;;5053928;28;20045;-66
2021/12/06 04:29:19;;;;;;;6.47;3.33;;;3.60;84.00;;;;;;5049889;28;20055;-66
2021/12/06 04:31:51;;;;;;;8.73;3.75;;;3.60;84.00;;;;;;5067101;28;20052;-66
2021/12/06 04:34:22;;;;;;;5.38;2.78;;;3.60;84.00;;;;;;5051374;28;20059;-65
2021/12/06 04:36:49;;;;;;;7.72;3.28;;;3.60;84.00;;;;;;5063168;28;20689;-64
2021/12/06 04:39:19;;;;;;;8.48;3.65;;;3.60;84.10;;;;;;5075563;28;20053;-67
2021/12/06 04:41:47;;;;;;;6.20;3.17;;;3.60;84.10;;;;;;5059076;28;20052;-67
2021/12/06 04:44:16;;;;;;;6.07;2.45;;;3.60;84.10;;;;;;5077051;28;20063;-68
2021/12/06 04:46:44;;;;;;;8.27;3.35;;;3.60;84.10;;;;;;5056995;28;20496;-65
2021/12/06 04:49:13;;;;;;;7.55;3.67;;;3.60;84.20;;;;;;5062501;28;20501;-66
2021/12/06 04:51:48;;;;;;;7.15;3.35;;;3.60;84.20;;;;;;5057788;28;20052;-66
2021/12/06 04:54:17;;;;;;;6.80;3.15;;;3.60;84.10;;;;;;5076880;28;20732;-67
2021/12/06 04:56:49;;;;;;;6.90;2.90;;;3.60;84.10;;;;;;5077785;28;20039;-64
2021/12/06 04:59:20;;;;;;;5.18;2.88;;;3.60;84.10;;;;;;5056723;28;20055;-66
2021/12/06 05:01:53;;;;;;;3.75;1.73;;;3.60;84.10;;;;;;5059435;28;20098;-67
2021/12/06 05:04:26;;;;;;;5.85;2.53;;;3.60;84.10;;;;;;5066537;28;20061;-66
2021/12/06 05:06:56;;;;;;;4.45;1.42;;;3.60;84.00;;;;;;5061867;28;20056;-63
2021/12/06 05:09:26;;;;;;;;;;;3.70;83.90;;;;;;5068288;28;20069;-64
2021/12/06 05:11:53;;;;;;;3.78;1.67;;;3.70;83.90;;;;;;5068176;28;19924;-66
2021/12/06 05:14:23;;;;;;;3.58;1.98;;;3.70;83.70;;;;;;5063770;28;20053;-65
2021/12/06 05:16:50;;;;;;;4.32;1.60;;;3.60;83.80;;;;;;5066591;28;20044;-66
2021/12/06 05:19:17;;;;;;;5.35;1.98;;;3.60;83.90;;;;;;5069328;28;20049;-64
2021/12/06 05:21:46;;;;;;;7.18;2.00;;;3.60;83.80;;;;;;5083712;28;20493;-64
2021/12/06 05:24:15;;;;;;;4.35;1.83;;;3.60;83.80;;;;;;5066664;28;20094;-65
2021/12/06 05:26:43;;;;;;;3.55;1.67;;;3.60;83.80;;;;;;5062436;28;20054;-64
2021/12/06 05:29:20;;;;;;;4.25;1.67;;;3.60;83.80;;;;;;5065077;28;20114;-65
2021/12/06 05:31:55;;;;;;;3.70;1.63;;;3.60;83.80;;;;;;5066545;28;20058;-65
2021/12/06 05:34:29;;;;;;;2.78;1.30;;;3.60;83.90;;;;;;5062162;28;20468;-67
2021/12/06 05:36:58;;;;;;;5.13;2.17;;;3.60;83.80;;;;;;5066109;28;20057;-65
2021/12/06 05:39:30;;;;;;;5.60;1.83;;;3.60;83.80;;;;;;5061564;28;20118;-66
2021/12/06 05:41:58;;;;;;;6.03;2.80;;;3.60;83.80;;;;;;5059244;28;20048;-64
2021/12/06 05:44:25;;;;;;;4.72;2.25;;;3.60;83.90;;;;;;5055191;28;20067;-65
2021/12/06 05:46:52;;;;;;;6.28;2.78;;;3.60;84.00;;;;;;5058444;28;20041;-66
2021/12/06 05:49:19;;;;;;;5.93;2.63;;;3.60;84.10;;;;;;5068665;28;20044;-65
2021/12/06 05:51:45;;;;;;;6.43;3.50;;;3.60;84.20;;;;;;5066577;28;20052;-67
2021/12/06 05:54:14;;;;;;;7.22;2.95;;;3.70;84.00;;;;;;5059312;28;20052;-65
2021/12/06 05:56:41;;;;;;;7.20;3.55;;;3.70;84.10;;;;;;5063063;28;20052;-64
2021/12/06 05:59:08;;;;;;;7.60;3.15;;;3.70;84.10;;;;;;5058171;28;20041;-66
2021/12/06 06:01:35;;;;;;;7.60;3.45;;;3.70;84.00;;;;;;5058457;28;20469;-64
2021/12/06 06:04:03;;;;;;;6.85;3.40;;;3.70;84.00;;;;;;5066086;28;20850;-65
2021/12/06 06:06:31;;;;;;;7.32;3.33;;;3.60;84.20;;;;;;5064137;28;20060;-65
2021/12/06 06:08:59;;;;;;;7.40;3.53;;;3.60;84.20;;;;;;5068641;28;20055;-65
2021/12/06 06:11:28;;;;;;;6.13;3.30;;;3.60;84.30;;;;;;5064893;28;20037;-65
2021/12/06 06:13:55;;;;;;;6.93;3.25;;;3.70;84.30;;;;;;5057827;28;20375;-64
2021/12/06 06:16:25;;;;;;;7.50;3.25;;;3.60;84.30;;;;;;5051361;28;20045;-65
2021/12/06 06:18:52;;;;;;;6.43;3.13;;;3.60;84.50;;;;;;5068372;28;20075;-65
2021/12/06 06:21:20;;;;;;;7.63;4.35;;;3.60;84.60;;;;;;5064793;28;20060;-65
2021/12/06 06:23:47;;;;;;;7.20;3.80;;;3.60;84.60;;;;;;5065645;28;20085;-66
2021/12/06 06:26:14;;;;;;;9.82;3.92;;;3.60;84.50;;;;;;5061742;28;20295;-66
2021/12/06 06:28:42;;;;;;;9.95;3.83;;;3.60;84.40;;;;;;5063139;28;20063;-65
2021/12/06 06:31:09;;;;;;;6.95;3.40;;;3.60;84.50;;;;;;5064768;28;20125;-66
2021/12/06 06:33:36;;;;;;;9.05;3.80;;;3.50;84.60;;;;;;5066169;28;20049;-66
2021/12/06 06:36:04;;;;;;;8.93;3.95;;;3.50;84.70;;;;;;5068316;28;20496;-65
2021/12/06 06:38:33;;;;;;;6.60;3.78;;;3.50;84.70;;;;;;5065135;28;20052;-65
2021/12/06 06:41:00;;;;;;;7.55;3.58;;;3.50;84.60;;;;;;5062458;28;20057;-65
2021/12/06 06:43:29;;;;;;;7.67;3.53;;;3.50;84.60;;;;;;5060958;28;20177;-66
2021/12/06 06:45:58;;;;;;;5.95;2.88;;;3.60;84.60;;;;;;5060702;28;20044;-65
2021/12/06 06:48:25;;;;;;;8.75;4.40;;;3.60;84.70;;;;;;5062347;28;20049;-65
2021/12/06 06:50:52;;;;;;;8.65;3.70;;;3.60;84.60;;;;;;5065083;28;20517;-66
2021/12/06 06:53:18;;;;;;;8.82;3.95;;;3.70;84.60;;;;;;5068214;28;20055;-66
2021/12/06 06:55:45;;;;;;;8.05;3.72;;;3.70;84.50;;;;;;5068007;28;20131;-65
2021/12/06 06:58:12;;;;;;;5.28;3.17;;;3.70;84.50;;;;;;5065745;28;20048;-64
2021/12/06 07:00:40;;;;;;;7.65;3.83;;;3.70;84.50;;;;;;5066745;28;20044;-65
2021/12/06 07:03:09;;;;;;;10.48;3.45;;;3.70;84.50;;;;;;5057637;28;20114;-66
2021/12/06 07:05:38;;;;;;;7.07;3.50;;;3.70;84.40;;;;;;5064275;28;20044;-65
2021/12/06 07:08:06;;;;;;;6.38;3.60;;;3.60;84.50;;;;;;5060907;28;20040;-65
2021/12/06 07:10:34;;;;;;;7.90;3.80;;;3.60;84.60;;;;;;5059111;28;20053;-64
2021/12/06 07:13:04;;;;;;;9.23;3.60;;;3.60;84.50;;;;;;5060184;28;20460;-65
2021/12/06 07:15:34;;;;;;;5.97;3.10;;;3.60;84.50;;;;;;5061505;28;20056;-65
2021/12/06 07:18:02;;;;;;;7.60;3.60;;;3.60;84.70;;;;;;5060791;28;20090;-65
2021/12/06 07:20:32;;;;;;;12.95;3.80;;;3.70;84.60;;;;;;5068387;28;20549;-65
2021/12/06 07:23:00;;;;;;;8.85;3.78;;;3.60;84.60;;;;;;5061488;28;20134;-64
2021/12/06 07:25:29;;;;;;;7.70;3.67;;;3.60;84.70;;;;;;5057868;28;20041;-65
2021/12/06 07:27:57;;;;;;;7.95;3.75;;;3.60;84.60;;;;;;5059915;28;20044;-66
2021/12/06 07:30:24;;;;;;;7.20;3.50;;;3.70;84.60;;;;;;5060202;28;20501;-65
2021/12/06 07:32:52;;;;;;;8.45;3.65;;;3.70;84.60;;;;;;5061179;28;20063;-65
2021/12/06 07:35:20;;;;;;;7.15;3.42;;;3.70;84.50;;;;;;5059203;28;20139;-64
2021/12/06 07:37:48;;;;;;;9.50;3.95;;;3.70;84.50;;;;;;5057391;28;20060;-66
2021/12/06 07:40:17;;;;;;;7.40;3.67;;;3.70;84.40;;;;;;5059218;28;20045;-65
2021/12/06 07:42:44;;;;;;;5.95;2.83;;;3.60;84.50;;;;;;5060756;28;20075;-64
2021/12/06 07:45:13;;;;;;;7.78;4.22;;;3.60;84.30;;;;;;5061664;28;20052;-66
2021/12/06 07:47:41;;;;;;;6.25;3.15;;;3.70;84.40;;;;;;5060689;28;20536;-65
2021/12/06 07:50:11;;;;;;;6.57;3.45;;;3.70;84.50;;;;;;5052221;28;20060;-66
2021/12/06 07:52:41;;;;;;;6.22;3.30;;;3.70;84.60;;;;;;5057436;28;20055;-65
2021/12/06 07:55:12;;;;;;;6.30;3.30;;;3.70;84.50;;;;;;5074616;28;20494;-66
2021/12/06 07:57:39;;;;;;;6.50;3.65;;;3.70;84.50;;;;;;5056210;28;20626;-64
2021/12/06 08:00:10;;;;;;;6.93;3.38;;;3.70;84.50;;;;;;5056760;28;20051;-67
2021/12/06 08:02:37;;;;;;;6.03;2.78;;;3.70;84.60;;;;;;5057691;28;20163;-65
2021/12/06 08:07:47;;;;;;;5.32;2.53;;;3.70;84.60;;;;;;5057865;28;20381;-67
2021/12/06 08:10:15;;;;;;;7.70;3.17;;;3.70;84.60;;;;;;5056025;28;20056;-66
2021/12/06 08:12:42;;;;;;;6.65;3.50;;;3.70;84.50;;;;;;5058456;28;20047;-67
2021/12/06 08:15:10;;;;;;;10.25;4.07;;;3.70;84.60;;;;;;5058443;28;20083;-68
2021/12/06 08:17:38;;;;;;;7.35;3.70;;;3.70;84.70;;;;;;5056743;28;20048;-67
2021/12/06 08:20:07;;;;;;;9.60;4.18;;;3.70;84.60;;;;;;5057705;28;20059;-66
2021/12/06 08:22:35;;;;;;;10.32;3.97;;;3.70;84.70;;;;;;5056970;28;20055;-65
2021/12/06 08:25:02;;;;;;;8.77;4.95;;;3.70;84.70;;;;;;5055193;28;20051;-66
2021/12/06 08:27:32;;;;;;;8.20;3.75;;;3.70;84.70;;;;;;5051139;28;20040;-64
2021/12/06 08:29:59;;;;;;;9.45;4.32;;;3.70;84.70;;;;;;5062361;28;20036;-66
2021/12/06 08:32:26;;;;;;;11.88;5.10;;;3.80;84.60;;;;;;5062042;28;20472;-67
2021/12/06 08:34:53;;;;;;;10.25;4.45;;;3.80;84.70;;;;;;5059722;28;20060;-66
2021/12/06 08:37:20;;;;;;;10.95;4.72;;;3.80;84.70;;;;;;5056481;28;20061;-63
2021/12/06 08:39:47;;;;;;;9.63;4.60;;;3.80;84.80;;;;;;5059358;28;20041;-67
2021/12/06 08:42:14;;;;;;;12.40;5.60;;;3.80;84.80;;;;;;5060035;28;20048;-66
2021/12/06 08:44:43;;;;;;;8.48;4.22;;;3.80;84.70;;;;;;5058106;28;20059;-66
2021/12/06 08:47:11;;;;;;;9.05;5.03;;;3.80;84.80;;;;;;5066473;28;20137;-65
2021/12/06 08:49:38;;;;;;;8.82;4.00;;;3.80;84.80;;;;;;5067433;28;20532;-66
2021/12/06 08:52:08;;;;;;;7.85;4.10;;;3.80;84.90;;;;;;5061268;28;20052;-65
2021/12/06 08:54:35;;;;;;;10.32;4.30;;;3.80;84.90;;;;;;5058346;28;21989;-63
2021/12/06 08:57:04;;;;;;;9.38;5.25;;;3.90;84.90;;;;;;5056283;28;20049;-65
2021/12/06 08:59:33;;;;;;;10.35;4.55;;;3.90;84.80;;;;;;5058606;28;20059;-67
2021/12/06 09:02:02;;;;;;;10.13;5.18;;;3.90;84.70;;;;;;5059722;28;20049;-67
2021/12/06 09:04:36;;;;;;;7.97;4.15;;;3.90;84.60;;;;;;5054049;28;20132;-65
2021/12/06 09:07:10;;;;;;;9.40;4.78;;;3.90;84.60;;;;;;5061805;28;20056;-65
2021/12/06 09:09:37;;;;;;;8.95;4.20;;;3.90;84.50;;;;;;5051512;28;20493;-65
2021/12/06 09:12:04;;;;;;;10.07;4.93;;;3.90;84.50;;;;;;5059577;28;20187;-66
2021/12/06 09:14:32;;;;;;;7.07;3.60;;;3.90;84.60;;;;;;5059715;28;20041;-66
2021/12/06 09:16:59;;;;;;;8.82;3.92;;;4.00;84.60;;;;;;5056767;28;20482;-66
2021/12/06 09:19:27;;;;;;;7.68;3.72;;;4.00;84.60;;;;;;5056508;28;20049;-66
2021/12/06 09:21:54;;;;;;;6.30;3.45;;;4.00;84.40;;;;;;5059899;28;20436;-65
2021/12/06 09:24:21;;;;;;;5.75;3.45;;;4.00;84.40;;;;;;5061549;28;20075;-65
2021/12/06 09:26:48;;;;;;;9.30;3.78;;;4.10;84.40;;;;;;5059462;28;20055;-65
2021/12/06 09:29:17;;;;;;;7.18;3.55;;;4.10;84.50;;;;;;5056975;28;20642;-68
2021/12/06 09:31:44;;;;;;;7.13;3.63;;;4.10;84.60;;;;;;5054299;28;20056;-68
2021/12/06 09:34:12;;;;;;;7.05;3.42;;;4.10;84.50;;;;;;5056771;28;20052;-67
2021/12/06 09:36:40;;;;;;;7.80;4.05;;;4.20;84.40;;;;;;5056456;28;20054;-66
2021/12/06 09:39:08;;;;;;;8.13;4.47;;;4.20;84.60;;;;;;5056010;28;20388;-65
2021/12/06 09:41:35;;;;;;;7.10;4.28;;;4.20;84.60;;;;;;5065161;28;20044;-66
2021/12/06 09:44:05;;;;;;;6.82;3.97;;;4.20;84.60;;;;;;5057364;28;20048;-65
2021/12/06 09:46:36;;;;;;;8.40;3.72;;;4.20;84.50;;;;;;5058383;28;20358;-66
2021/12/06 09:49:05;;;;;;;7.93;3.70;;;4.20;84.30;;;;;;5071647;28;20079;-65
2021/12/06 09:51:32;;;;;;;8.13;4.15;;;4.20;84.40;;;;;;5061241;28;20072;-67
2021/12/06 09:54:01;;;;;;;9.27;4.47;;;4.20;84.40;;;;;;5058990;28;20041;-65
2021/12/06 09:56:31;;;;;;;12.03;4.63;;;4.20;84.50;;;;;;5058817;28;20041;-64
2021/12/06 09:59:00;;;;;;;7.35;4.18;;;4.20;84.40;;;;;;5062925;28;20045;-64
2021/12/06 10:01:32;;;;;;;8.98;4.60;;;4.30;84.40;;;;;;5062557;28;20048;-66
2021/12/06 10:04:00;;;;;;;5.90;3.58;;;4.30;84.30;;;;;;5057740;28;20079;-65
2021/12/06 10:06:33;;;;;;;7.78;4.00;;;4.30;84.30;;;;;;5057888;28;20549;-66
2021/12/06 10:09:04;;;;;;;8.15;4.10;;;4.40;84.40;;;;;;5061761;28;20234;-65
2021/12/06 10:11:31;;;;;;;8.57;4.07;;;4.40;84.20;;;;;;5062225;28;20040;-67
2021/12/06 10:13:58;;;;;;;8.57;4.22;;;4.50;84.10;;;;;;5062841;28;20044;-65
2021/12/06 10:16:26;;;;;;;6.75;3.45;;;4.50;84.10;;;;;;5060413;28;20050;-66
2021/12/06 10:18:54;;;;;;;9.85;3.88;;;4.60;84.00;;;;;;5060723;28;20052;-66
2021/12/06 10:21:23;;;;;;;10.32;4.82;;;4.60;83.90;;;;;;5063740;28;20049;-65
2021/12/06 10:23:52;;;;;;;6.10;3.72;;;4.70;83.70;;;;;;5061472;28;20048;-67
2021/12/06 10:26:24;;;;;;;8.70;4.28;;;4.70;83.60;;;;;;5062448;28;20153;-65
2021/12/06 10:28:56;;;;;;;11.25;4.78;;;4.70;83.50;;;;;;5061182;28;20060;-66
2021/12/06 10:31:26;;;;;;;6.70;3.22;;;4.70;83.40;;;;;;5060888;28;20458;-65
2021/12/06 10:33:54;;;;;;;6.60;3.47;;;4.70;83.50;;;;;;5062263;28;20657;-65
2021/12/06 10:36:21;;;;;;;6.82;3.45;;;4.70;83.50;;;;;;5062032;28;20466;-66
2021/12/06 10:38:53;;;;;;;7.25;3.95;;;4.70;83.50;;;;;;5067859;28;20048;-65
2021/12/06 10:41:25;;;;;;;7.38;3.25;;;4.80;83.40;;;;;;5070001;28;20037;-66
2021/12/06 10:43:54;;;;;;;6.35;3.75;;;4.70;83.50;;;;;;5064068;28;20469;-64
2021/12/06 10:46:22;;;;;;;7.15;3.75;;;4.70;83.60;;;;;;5059794;28;20050;-71
2021/12/06 10:48:50;;;;;;;7.35;3.78;;;4.80;83.60;;;;;;5062976;28;20064;-64
2021/12/06 10:51:20;;;;;;;7.97;4.15;;;4.80;83.50;;;;;;5061324;28;20048;-65
2021/12/06 10:53:57;;;;;;;6.43;3.00;;;4.80;83.60;;;;;;5058583;28;20047;-65
2021/12/06 10:56:36;;;;;;;8.05;4.57;;;4.80;83.50;;;;;;5054287;28;20123;-65
2021/12/06 10:59:07;;;;;;;7.07;3.13;;;4.80;83.40;;;;;;5061947;28;20044;-66
2021/12/06 11:01:35;;;;;;;7.55;4.10;;;4.80;83.40;;;;;;5058099;28;20045;-64
2021/12/06 11:04:05;;;;;;;8.30;3.50;;;4.80;83.30;;;;;;5060744;28;20068;-65
2021/12/06 11:06:36;;;;;;;7.50;3.47;;;4.70;83.40;;;;;;5058378;28;20056;-64
2021/12/06 11:09:04;;;;;;;;;;;4.70;83.30;;;;;;5060334;28;20120;-67
2021/12/06 11:11:35;;;;;;;7.22;3.60;;;4.60;83.30;;;;;;5056440;28;20396;-65
2021/12/06 11:14:06;;;;;;;6.90;3.40;;;4.60;83.40;;;;;;5061684;28;20041;-64
2021/12/06 11:16:34;;;;;;;6.13;3.30;;;4.70;83.40;;;;;;5059207;28;20040;-67
2021/12/06 11:19:04;;;;;;;6.70;3.50;;;4.70;83.40;;;;;;5056180;28;20057;-67
2021/12/06 11:21:36;;;;;;;7.95;4.13;;;4.70;83.50;;;;;;5056140;28;20048;-67
2021/12/06 11:24:12;;;;;;;7.53;3.63;;;4.70;83.50;;;;;;5058265;28;20143;-66
2021/12/06 11:26:44;;;;;;;6.70;3.22;;;4.70;83.60;;;;;;5057616;28;20040;-65
2021/12/06 11:29:15;;;;;;;7.88;3.67;;;4.80;83.50;;;;;;5056803;28;20041;-66
2021/12/06 11:31:48;;;;;;;8.55;4.50;;;4.80;83.50;;;;;;5058125;28;20052;-67
2021/12/06 11:34:16;;;;;;;6.18;3.38;;;4.80;83.50;;;;;;5067550;28;22259;-66
2021/12/06 11:36:45;;;;;;;7.65;3.42;;;4.80;83.50;;;;;;5057393;28;20059;-66
2021/12/06 11:39:15;;;;;;;9.32;4.28;;;4.80;83.50;;;;;;5058423;28;20048;-66
2021/12/06 11:41:48;;;;;;;7.57;3.90;;;4.80;83.50;;;;;;5057397;28;20071;-65
2021/12/06 11:44:19;;;;;;;6.28;3.03;;;4.80;83.40;;;;;;5059247;28;20367;-66
2021/12/06 11:46:46;;;;;;;8.57;3.42;;;4.80;83.40;;;;;;5056536;28;20041;-67
2021/12/06 11:49:22;;;;;;;10.57;4.25;;;4.80;83.50;;;;;;5059419;28;20041;-65
2021/12/06 11:51:51;;;;;;;6.90;3.72;;;4.80;83.60;;;;;;5059305;28;20044;-66
2021/12/06 11:54:18;;;;;;;7.38;3.78;;;4.80;83.90;;;;;;5047881;28;20461;-66
2021/12/06 11:56:49;;;;;;;6.47;3.50;;;4.80;84.00;;;;;;5056251;28;20059;-65
2021/12/06 11:59:18;;;;;;;7.78;3.85;;;4.80;84.00;;;;;;5059776;28;20044;-64
2021/12/06 12:01:47;;;;;;;5.63;2.97;;;4.80;84.10;;;;;;5057205;28;20048;-66
2021/12/06 12:04:17;;;;;;;6.90;3.67;;;4.80;84.20;;;;;;5059999;28;20139;-64
2021/12/06 12:06:46;;;;;;;7.75;4.13;;;4.70;84.20;;;;;;5056518;28;20055;-64
2021/12/06 12:09:15;;;;;;;7.05;3.78;;;4.80;84.30;;;;;;5055739;28;20040;-63
2021/12/06 12:12:05;;;;;;;7.45;3.85;;;4.70;84.40;;;;;;5058555;28;20053;-66
2021/12/06 12:14:38;;;;;;;7.80;4.65;;;4.80;84.50;;;;;;5057467;28;20413;-65
2021/12/06 12:17:07;;;;;;;6.72;3.53;;;4.70;84.40;;;;;;5056910;28;20055;-64
2021/12/06 12:19:35;;;;;;;7.38;3.53;;;4.70;84.40;;;;;;5057312;28;20558;-66
2021/12/06 12:22:02;;;;;;;7.30;3.33;;;4.70;84.30;;;;;;5060403;28;20049;-66
2021/12/06 12:24:32;;;;;;;6.13;2.42;;;4.70;84.40;;;;;;5058940;28;20379;-65
2021/12/06 12:27:08;;;;;;;6.97;3.40;;;4.70;84.40;;;;;;5058309;28;20067;-65
2021/12/06 12:29:35;;;;;;;8.68;3.60;;;4.70;84.40;;;;;;5059948;28;20127;-65
2021/12/06 12:32:06;;;;;;;7.95;3.78;;;4.70;84.40;;;;;;5062773;28;20494;-65
2021/12/06 12:34:38;;;;;;;6.80;2.95;;;4.60;84.60;;;;;;5059637;28;20591;-66
2021/12/06 12:37:08;;;;;;;8.82;4.15;;;4.70;84.60;;;;;;5057772;28;20045;-66
2021/12/06 12:39:36;;;;;;;6.88;3.28;;;4.70;84.60;;;;;;5059405;28;20049;-66
2021/12/06 12:42:09;;;;;;;5.43;3.05;;;4.70;84.60;;;;;;5058366;28;20145;-66
2021/12/06 12:44:45;;;;;;;6.72;3.55;;;4.70;84.50;;;;;;5055954;28;20047;-65
2021/12/06 12:47:20;;;;;;;6.85;3.15;;;4.80;84.50;;;;;;5058946;28;20062;-66
2021/12/06 12:49:49;;;;;;;5.40;2.88;;;4.80;84.70;;;;;;5061193;28;20044;-66
2021/12/06 12:52:17;;;;;;;6.63;3.30;;;4.80;84.70;;;;;;5078905;28;20263;-65
2021/12/06 12:54:46;;;;;;;5.35;2.88;;;4.80;84.70;;;;;;5061407;28;20055;-65
2021/12/06 12:57:16;;;;;;;6.63;3.38;;;4.80;84.70;;;;;;5056502;28;20039;-65
2021/12/06 12:59:49;;;;;;;5.10;2.90;;;4.80;84.80;;;;;;5056901;28;20051;-67
2021/12/06 13:02:30;;;;;;;5.53;3.08;;;4.80;84.80;;;;;;5054656;28;20048;-66
2021/12/06 13:05:28;;;;;;;5.95;3.03;;;4.90;84.80;;;;;;5055764;28;20390;-64
2021/12/06 13:08:07;;;;;;;5.45;2.83;;;4.90;84.80;;;;;;5056413;28;20049;-65
2021/12/06 13:10:47;;;;;;;6.07;3.05;;;4.90;84.80;;;;;;5053197;28;20048;-66
2021/12/06 13:13:28;;;;;;;9.48;4.22;;;4.90;84.90;;;;;;5055164;28;20127;-65
2021/12/06 13:16:01;;;;;;;7.22;3.40;;;4.90;84.70;;;;;;5052867;28;20955;-65